sensor_id;sensor_type;location;lat;lon;timestamp;P1;durP1;ratioP1;P2;durP2;ratioP2
35150;SDS011;55720;51.972;4.624;2023-07-31T00:00:22;32.50;;;7.80;;
35150;SDS011;55720;51.972;4.624;2023-07-31T00:02:48;43.10;;;7.27;;
35150;SDS011;55720;51.972;4.624;2023-07-31T00:05:13;26.93;;;7.00;;
35150;SDS011;55720;51.972;4.624;2023-07-31T00:07:38;41.78;;;7.22;;
35150;SDS011;55720;51.972;4.624;2023-07-31T00:10:03;38.03;;;6.97;;
35150;SDS011;55720;51.972;4.624;2023-07-31T00:12:29;24.88;;;6.13;;
35150;SDS011;55720;51.972;4.624;2023-07-31T00:14:54;25.73;;;6.38;;
35150;SDS011;55720;51.972;4.624;2023-07-31T00:17:19;31.17;;;6.83;;
35150;SDS011;55720;51.972;4.624;2023-07-31T00:19:44;22.50;;;5.72;;
35150;SDS011;55720;51.972;4.624;2023-07-31T00:22:11;27.55;;;5.97;;
35150;SDS011;55720;51.972;4.624;2023-07-31T00:24:36;26.80;;;6.60;;
35150;SDS011;55720;51.972;4.624;2023-07-31T00:27:02;30.63;;;6.43;;
35150;SDS011;55720;51.972;4.624;2023-07-31T00:29:27;31.38;;;6.85;;
35150;SDS011;55720;51.972;4.624;2023-07-31T00:31:52;25.90;;;6.37;;
35150;SDS011;55720;51.972;4.624;2023-07-31T00:34:17;38.20;;;7.00;;
35150;SDS011;55720;51.972;4.624;2023-07-31T00:36:42;34.07;;;7.33;;
35150;SDS011;55720;51.972;4.624;2023-07-31T00:39:08;22.17;;;6.53;;
35150;SDS011;55720;51.972;4.624;2023-07-31T00:41:33;28.43;;;6.20;;
35150;SDS011;55720;51.972;4.624;2023-07-31T00:43:58;24.57;;;6.23;;
35150;SDS011;55720;51.972;4.624;2023-07-31T00:46:23;29.87;;;7.40;;
35150;SDS011;55720;51.972;4.624;2023-07-31T00:48:48;37.10;;;7.05;;
35150;SDS011;55720;51.972;4.624;2023-07-31T00:51:14;29.67;;;6.57;;
35150;SDS011;55720;51.972;4.624;2023-07-31T00:53:40;38.30;;;8.05;;
35150;SDS011;55720;51.972;4.624;2023-07-31T00:56:05;34.75;;;7.53;;
35150;SDS011;55720;51.972;4.624;2023-07-31T00:58:30;34.88;;;7.75;;
35150;SDS011;55720;51.972;4.624;2023-07-31T01:00:56;34.33;;;7.43;;
35150;SDS011;55720;51.972;4.624;2023-07-31T01:03:21;31.07;;;7.03;;
35150;SDS011;55720;51.972;4.624;2023-07-31T01:06:08;29.90;;;7.57;;
35150;SDS011;55720;51.972;4.624;2023-07-31T01:11:07;18.27;;;5.32;;
35150;SDS011;55720;51.972;4.624;2023-07-31T01:15:58;16.50;;;4.68;;
35150;SDS011;55720;51.972;4.624;2023-07-31T01:18:23;16.15;;;4.13;;
35150;SDS011;55720;51.972;4.624;2023-07-31T01:20:51;17.93;;;4.90;;
35150;SDS011;55720;51.972;4.624;2023-07-31T01:26:12;20.08;;;4.70;;
35150;SDS011;55720;51.972;4.624;2023-07-31T01:28:43;22.90;;;5.57;;
35150;SDS011;55720;51.972;4.624;2023-07-31T01:31:10;18.23;;;5.55;;
35150;SDS011;55720;51.972;4.624;2023-07-31T01:33:37;32.22;;;6.00;;
35150;SDS011;55720;51.972;4.624;2023-07-31T01:36:03;31.85;;;7.18;;
35150;SDS011;55720;51.972;4.624;2023-07-31T01:38:28;31.60;;;6.15;;
35150;SDS011;55720;51.972;4.624;2023-07-31T01:40:53;26.83;;;6.13;;
35150;SDS011;55720;51.972;4.624;2023-07-31T01:43:19;23.20;;;6.78;;
35150;SDS011;55720;51.972;4.624;2023-07-31T01:45:44;34.05;;;6.38;;
35150;SDS011;55720;51.972;4.624;2023-07-31T01:48:10;28.47;;;6.43;;
35150;SDS011;55720;51.972;4.624;2023-07-31T01:50:35;39.47;;;6.43;;
35150;SDS011;55720;51.972;4.624;2023-07-31T01:53:00;25.17;;;5.70;;
35150;SDS011;55720;51.972;4.624;2023-07-31T01:55:25;27.83;;;6.50;;
35150;SDS011;55720;51.972;4.624;2023-07-31T01:57:51;29.65;;;6.70;;
35150;SDS011;55720;51.972;4.624;2023-07-31T02:00:17;30.70;;;5.82;;
35150;SDS011;55720;51.972;4.624;2023-07-31T02:02:42;26.23;;;5.68;;
35150;SDS011;55720;51.972;4.624;2023-07-31T02:05:07;40.97;;;7.30;;
35150;SDS011;55720;51.972;4.624;2023-07-31T02:07:33;36.15;;;6.30;;
35150;SDS011;55720;51.972;4.624;2023-07-31T02:09:58;30.07;;;6.63;;
35150;SDS011;55720;51.972;4.624;2023-07-31T02:12:23;34.13;;;7.55;;
35150;SDS011;55720;51.972;4.624;2023-07-31T02:14:48;24.35;;;6.30;;
35150;SDS011;55720;51.972;4.624;2023-07-31T02:17:14;32.40;;;6.93;;
35150;SDS011;55720;51.972;4.624;2023-07-31T02:19:39;35.10;;;7.43;;
35150;SDS011;55720;51.972;4.624;2023-07-31T02:22:04;26.23;;;8.20;;
35150;SDS011;55720;51.972;4.624;2023-07-31T02:24:29;30.58;;;6.95;;
35150;SDS011;55720;51.972;4.624;2023-07-31T02:26:55;28.08;;;6.68;;
35150;SDS011;55720;51.972;4.624;2023-07-31T02:29:20;31.02;;;6.43;;
35150;SDS011;55720;51.972;4.624;2023-07-31T02:31:45;29.40;;;7.20;;
35150;SDS011;55720;51.972;4.624;2023-07-31T02:34:11;29.43;;;6.33;;
35150;SDS011;55720;51.972;4.624;2023-07-31T02:36:36;33.20;;;7.00;;
35150;SDS011;55720;51.972;4.624;2023-07-31T02:39:01;27.80;;;6.47;;
35150;SDS011;55720;51.972;4.624;2023-07-31T02:41:26;26.50;;;5.80;;
35150;SDS011;55720;51.972;4.624;2023-07-31T02:43:52;28.47;;;6.50;;
35150;SDS011;55720;51.972;4.624;2023-07-31T02:46:17;24.73;;;6.03;;
35150;SDS011;55720;51.972;4.624;2023-07-31T02:48:42;23.52;;;5.05;;
35150;SDS011;55720;51.972;4.624;2023-07-31T02:51:07;20.15;;;6.10;;
35150;SDS011;55720;51.972;4.624;2023-07-31T02:53:32;28.58;;;6.07;;
35150;SDS011;55720;51.972;4.624;2023-07-31T02:55:58;28.63;;;6.10;;
35150;SDS011;55720;51.972;4.624;2023-07-31T02:58:23;19.43;;;5.43;;
35150;SDS011;55720;51.972;4.624;2023-07-31T03:00:48;32.50;;;5.90;;
35150;SDS011;55720;51.972;4.624;2023-07-31T03:03:14;20.98;;;5.20;;
35150;SDS011;55720;51.972;4.624;2023-07-31T03:05:39;19.27;;;5.07;;
35150;SDS011;55720;51.972;4.624;2023-07-31T03:08:04;20.37;;;6.93;;
35150;SDS011;55720;51.972;4.624;2023-07-31T03:10:29;18.63;;;5.97;;
35150;SDS011;55720;51.972;4.624;2023-07-31T03:12:55;26.33;;;5.43;;
35150;SDS011;55720;51.972;4.624;2023-07-31T03:15:20;22.73;;;5.57;;
35150;SDS011;55720;51.972;4.624;2023-07-31T03:17:45;23.63;;;5.90;;
35150;SDS011;55720;51.972;4.624;2023-07-31T03:20:11;26.13;;;6.35;;
35150;SDS011;55720;51.972;4.624;2023-07-31T03:22:36;16.40;;;5.23;;
35150;SDS011;55720;51.972;4.624;2023-07-31T03:25:02;22.35;;;5.40;;
35150;SDS011;55720;51.972;4.624;2023-07-31T03:27:27;20.48;;;5.35;;
35150;SDS011;55720;51.972;4.624;2023-07-31T03:29:53;27.67;;;6.60;;
35150;SDS011;55720;51.972;4.624;2023-07-31T03:32:18;23.30;;;4.65;;
35150;SDS011;55720;51.972;4.624;2023-07-31T03:34:43;20.67;;;5.43;;
35150;SDS011;55720;51.972;4.624;2023-07-31T03:37:09;18.10;;;5.43;;
35150;SDS011;55720;51.972;4.624;2023-07-31T03:39:34;21.55;;;5.82;;
35150;SDS011;55720;51.972;4.624;2023-07-31T03:41:59;25.23;;;6.72;;
35150;SDS011;55720;51.972;4.624;2023-07-31T03:44:25;22.83;;;6.07;;
35150;SDS011;55720;51.972;4.624;2023-07-31T03:46:50;20.13;;;5.50;;
35150;SDS011;55720;51.972;4.624;2023-07-31T03:49:15;25.20;;;6.18;;
35150;SDS011;55720;51.972;4.624;2023-07-31T03:51:40;19.20;;;6.70;;
35150;SDS011;55720;51.972;4.624;2023-07-31T03:54:06;22.65;;;6.07;;
35150;SDS011;55720;51.972;4.624;2023-07-31T03:56:32;18.38;;;6.18;;
35150;SDS011;55720;51.972;4.624;2023-07-31T03:58:58;22.88;;;6.93;;
35150;SDS011;55720;51.972;4.624;2023-07-31T04:01:23;34.53;;;7.33;;
35150;SDS011;55720;51.972;4.624;2023-07-31T04:03:48;17.10;;;6.07;;
35150;SDS011;55720;51.972;4.624;2023-07-31T04:06:13;25.13;;;6.30;;
35150;SDS011;55720;51.972;4.624;2023-07-31T04:08:42;18.83;;;6.97;;
35150;SDS011;55720;51.972;4.624;2023-07-31T04:11:08;21.48;;;6.90;;
35150;SDS011;55720;51.972;4.624;2023-07-31T04:13:33;19.15;;;6.85;;
35150;SDS011;55720;51.972;4.624;2023-07-31T04:15:58;16.23;;;5.55;;
35150;SDS011;55720;51.972;4.624;2023-07-31T04:18:24;17.03;;;5.67;;
35150;SDS011;55720;51.972;4.624;2023-07-31T04:20:49;17.45;;;5.68;;
35150;SDS011;55720;51.972;4.624;2023-07-31T04:23:15;23.60;;;5.70;;
35150;SDS011;55720;51.972;4.624;2023-07-31T04:25:40;12.63;;;5.33;;
35150;SDS011;55720;51.972;4.624;2023-07-31T04:28:05;17.10;;;5.40;;
35150;SDS011;55720;51.972;4.624;2023-07-31T04:30:30;13.25;;;5.20;;
35150;SDS011;55720;51.972;4.624;2023-07-31T04:32:55;19.97;;;5.80;;
35150;SDS011;55720;51.972;4.624;2023-07-31T04:35:21;13.50;;;4.57;;
35150;SDS011;55720;51.972;4.624;2023-07-31T04:37:46;9.60;;;4.87;;
35150;SDS011;55720;51.972;4.624;2023-07-31T04:40:13;13.95;;;5.15;;
35150;SDS011;55720;51.972;4.624;2023-07-31T04:42:39;11.82;;;4.85;;
35150;SDS011;55720;51.972;4.624;2023-07-31T04:45:04;8.98;;;4.82;;
35150;SDS011;55720;51.972;4.624;2023-07-31T04:47:30;11.15;;;5.13;;
35150;SDS011;55720;51.972;4.624;2023-07-31T04:49:55;13.48;;;5.32;;
35150;SDS011;55720;51.972;4.624;2023-07-31T04:52:20;13.97;;;5.40;;
35150;SDS011;55720;51.972;4.624;2023-07-31T04:54:45;14.70;;;5.53;;
35150;SDS011;55720;51.972;4.624;2023-07-31T04:57:11;13.13;;;5.75;;
35150;SDS011;55720;51.972;4.624;2023-07-31T04:59:36;15.30;;;6.13;;
35150;SDS011;55720;51.972;4.624;2023-07-31T05:02:01;20.45;;;6.97;;
35150;SDS011;55720;51.972;4.624;2023-07-31T05:04:27;18.20;;;6.47;;
35150;SDS011;55720;51.972;4.624;2023-07-31T05:06:52;21.93;;;5.80;;
35150;SDS011;55720;51.972;4.624;2023-07-31T05:09:17;20.83;;;6.30;;
35150;SDS011;55720;51.972;4.624;2023-07-31T05:11:43;17.40;;;5.43;;
35150;SDS011;55720;51.972;4.624;2023-07-31T05:14:08;26.73;;;6.45;;
35150;SDS011;55720;51.972;4.624;2023-07-31T05:16:34;20.90;;;5.78;;
35150;SDS011;55720;51.972;4.624;2023-07-31T05:18:59;17.07;;;4.33;;
35150;SDS011;55720;51.972;4.624;2023-07-31T05:21:24;17.13;;;5.00;;
35150;SDS011;55720;51.972;4.624;2023-07-31T05:23:49;13.07;;;5.07;;
35150;SDS011;55720;51.972;4.624;2023-07-31T05:26:14;13.57;;;4.93;;
35150;SDS011;55720;51.972;4.624;2023-07-31T05:28:40;10.00;;;4.72;;
35150;SDS011;55720;51.972;4.624;2023-07-31T05:31:05;6.40;;;3.97;;
35150;SDS011;55720;51.972;4.624;2023-07-31T05:33:31;9.02;;;3.90;;
35150;SDS011;55720;51.972;4.624;2023-07-31T05:35:57;14.45;;;4.43;;
35150;SDS011;55720;51.972;4.624;2023-07-31T05:38:22;13.23;;;3.92;;
35150;SDS011;55720;51.972;4.624;2023-07-31T05:40:47;11.43;;;4.32;;
35150;SDS011;55720;51.972;4.624;2023-07-31T05:43:13;9.13;;;4.18;;
35150;SDS011;55720;51.972;4.624;2023-07-31T05:45:38;8.25;;;4.43;;
35150;SDS011;55720;51.972;4.624;2023-07-31T05:48:05;13.60;;;3.92;;
35150;SDS011;55720;51.972;4.624;2023-07-31T05:50:30;8.18;;;4.07;;
35150;SDS011;55720;51.972;4.624;2023-07-31T05:52:55;5.97;;;3.85;;
35150;SDS011;55720;51.972;4.624;2023-07-31T05:55:20;10.50;;;4.20;;
35150;SDS011;55720;51.972;4.624;2023-07-31T05:57:46;10.13;;;3.83;;
35150;SDS011;55720;51.972;4.624;2023-07-31T06:00:12;7.40;;;3.90;;
35150;SDS011;55720;51.972;4.624;2023-07-31T06:02:37;13.20;;;5.25;;
35150;SDS011;55720;51.972;4.624;2023-07-31T06:05:03;7.85;;;4.07;;
35150;SDS011;55720;51.972;4.624;2023-07-31T06:07:29;6.07;;;3.97;;
35150;SDS011;55720;51.972;4.624;2023-07-31T06:09:54;9.82;;;4.22;;
35150;SDS011;55720;51.972;4.624;2023-07-31T06:12:20;7.88;;;4.88;;
35150;SDS011;55720;51.972;4.624;2023-07-31T06:14:45;8.80;;;4.55;;
35150;SDS011;55720;51.972;4.624;2023-07-31T06:17:10;7.28;;;3.92;;
35150;SDS011;55720;51.972;4.624;2023-07-31T06:19:36;8.18;;;4.20;;
35150;SDS011;55720;51.972;4.624;2023-07-31T06:22:01;8.18;;;4.13;;
35150;SDS011;55720;51.972;4.624;2023-07-31T06:24:27;6.05;;;3.95;;
35150;SDS011;55720;51.972;4.624;2023-07-31T06:26:52;6.30;;;3.60;;
35150;SDS011;55720;51.972;4.624;2023-07-31T06:29:18;6.45;;;3.80;;
35150;SDS011;55720;51.972;4.624;2023-07-31T06:31:43;4.65;;;3.08;;
35150;SDS011;55720;51.972;4.624;2023-07-31T06:34:08;7.22;;;3.13;;
35150;SDS011;55720;51.972;4.624;2023-07-31T06:36:33;5.03;;;3.30;;
35150;SDS011;55720;51.972;4.624;2023-07-31T06:38:59;4.97;;;3.60;;
35150;SDS011;55720;51.972;4.624;2023-07-31T06:41:24;6.17;;;3.53;;
35150;SDS011;55720;51.972;4.624;2023-07-31T06:43:49;4.85;;;2.65;;
35150;SDS011;55720;51.972;4.624;2023-07-31T06:46:14;5.83;;;3.00;;
35150;SDS011;55720;51.972;4.624;2023-07-31T06:48:39;7.88;;;3.17;;
35150;SDS011;55720;51.972;4.624;2023-07-31T06:51:05;4.27;;;3.33;;
35150;SDS011;55720;51.972;4.624;2023-07-31T06:53:30;3.30;;;2.47;;
35150;SDS011;55720;51.972;4.624;2023-07-31T06:55:55;4.10;;;2.90;;
35150;SDS011;55720;51.972;4.624;2023-07-31T06:58:20;4.10;;;2.80;;
35150;SDS011;55720;51.972;4.624;2023-07-31T07:00:46;5.07;;;2.50;;
35150;SDS011;55720;51.972;4.624;2023-07-31T07:03:11;6.97;;;2.70;;
35150;SDS011;55720;51.972;4.624;2023-07-31T07:05:36;3.38;;;2.63;;
35150;SDS011;55720;51.972;4.624;2023-07-31T07:08:01;4.63;;;2.57;;
35150;SDS011;55720;51.972;4.624;2023-07-31T07:10:27;4.07;;;2.60;;
35150;SDS011;55720;51.972;4.624;2023-07-31T07:12:52;2.83;;;1.95;;
35150;SDS011;55720;51.972;4.624;2023-07-31T07:15:17;4.00;;;2.15;;
35150;SDS011;55720;51.972;4.624;2023-07-31T07:17:43;2.90;;;2.33;;
35150;SDS011;55720;51.972;4.624;2023-07-31T07:20:08;2.78;;;2.38;;
35150;SDS011;55720;51.972;4.624;2023-07-31T07:22:33;3.65;;;2.25;;
35150;SDS011;55720;51.972;4.624;2023-07-31T07:24:58;3.60;;;2.30;;
35150;SDS011;55720;51.972;4.624;2023-07-31T07:27:23;2.70;;;2.50;;
35150;SDS011;55720;51.972;4.624;2023-07-31T07:29:52;3.55;;;1.80;;
35150;SDS011;55720;51.972;4.624;2023-07-31T07:32:17;3.28;;;1.98;;
35150;SDS011;55720;51.972;4.624;2023-07-31T07:34:43;3.92;;;2.13;;
35150;SDS011;55720;51.972;4.624;2023-07-31T07:37:08;3.03;;;1.60;;
35150;SDS011;55720;51.972;4.624;2023-07-31T07:39:33;2.40;;;1.73;;
35150;SDS011;55720;51.972;4.624;2023-07-31T07:41:59;1.83;;;1.50;;
35150;SDS011;55720;51.972;4.624;2023-07-31T07:44:24;2.23;;;1.53;;
35150;SDS011;55720;51.972;4.624;2023-07-31T07:46:49;1.70;;;1.60;;
35150;SDS011;55720;51.972;4.624;2023-07-31T07:49:14;3.42;;;1.38;;
35150;SDS011;55720;51.972;4.624;2023-07-31T07:51:40;3.30;;;1.50;;
35150;SDS011;55720;51.972;4.624;2023-07-31T07:54:05;1.27;;;1.17;;
35150;SDS011;55720;51.972;4.624;2023-07-31T07:56:32;2.33;;;1.33;;
35150;SDS011;55720;51.972;4.624;2023-07-31T07:58:58;1.63;;;1.10;;
35150;SDS011;55720;51.972;4.624;2023-07-31T08:01:23;1.20;;;1.10;;
35150;SDS011;55720;51.972;4.624;2023-07-31T08:03:48;1.30;;;1.10;;
35150;SDS011;55720;51.972;4.624;2023-07-31T08:06:14;1.80;;;0.90;;
35150;SDS011;55720;51.972;4.624;2023-07-31T08:08:39;0.82;;;0.70;;
35150;SDS011;55720;51.972;4.624;2023-07-31T08:11:04;1.30;;;0.80;;
35150;SDS011;55720;51.972;4.624;2023-07-31T08:13:30;0.82;;;0.70;;
35150;SDS011;55720;51.972;4.624;2023-07-31T08:15:55;0.75;;;0.70;;
35150;SDS011;55720;51.972;4.624;2023-07-31T08:18:20;1.67;;;0.73;;
35150;SDS011;55720;51.972;4.624;2023-07-31T08:20:46;1.77;;;0.60;;
35150;SDS011;55720;51.972;4.624;2023-07-31T08:23:11;9.07;;;2.13;;
35150;SDS011;55720;51.972;4.624;2023-07-31T08:25:37;0.93;;;0.65;;
35150;SDS011;55720;51.972;4.624;2023-07-31T08:28:02;0.80;;;0.60;;
35150;SDS011;55720;51.972;4.624;2023-07-31T08:30:28;0.80;;;0.60;;
35150;SDS011;55720;51.972;4.624;2023-07-31T08:32:53;0.67;;;0.57;;
35150;SDS011;55720;51.972;4.624;2023-07-31T08:35:18;1.17;;;0.80;;
35150;SDS011;55720;51.972;4.624;2023-07-31T08:37:43;0.80;;;0.50;;
35150;SDS011;55720;51.972;4.624;2023-07-31T08:40:09;1.47;;;0.77;;
35150;SDS011;55720;51.972;4.624;2023-07-31T08:42:41;0.77;;;0.63;;
35150;SDS011;55720;51.972;4.624;2023-07-31T08:45:08;0.80;;;0.55;;
35150;SDS011;55720;51.972;4.624;2023-07-31T08:47:34;0.60;;;0.57;;
35150;SDS011;55720;51.972;4.624;2023-07-31T08:50:00;0.70;;;0.68;;
35150;SDS011;55720;51.972;4.624;2023-07-31T08:52:25;0.80;;;0.60;;
35150;SDS011;55720;51.972;4.624;2023-07-31T08:54:50;1.98;;;0.52;;
35150;SDS011;55720;51.972;4.624;2023-07-31T08:57:15;2.97;;;0.80;;
35150;SDS011;55720;51.972;4.624;2023-07-31T08:59:41;0.88;;;0.77;;
35150;SDS011;55720;51.972;4.624;2023-07-31T09:02:08;1.38;;;0.50;;
35150;SDS011;55720;51.972;4.624;2023-07-31T09:04:33;0.80;;;0.60;;
35150;SDS011;55720;51.972;4.624;2023-07-31T09:07:03;2.38;;;0.75;;
35150;SDS011;55720;51.972;4.624;2023-07-31T09:09:29;4.32;;;0.60;;
35150;SDS011;55720;51.972;4.624;2023-07-31T09:11:55;3.72;;;1.08;;
35150;SDS011;55720;51.972;4.624;2023-07-31T09:14:21;1.40;;;0.88;;
35150;SDS011;55720;51.972;4.624;2023-07-31T09:16:56;2.08;;;1.08;;
35150;SDS011;55720;51.972;4.624;2023-07-31T09:19:29;1.42;;;1.20;;
35150;SDS011;55720;51.972;4.624;2023-07-31T09:21:54;1.65;;;1.25;;
35150;SDS011;55720;51.972;4.624;2023-07-31T09:24:29;4.00;;;1.52;;
35150;SDS011;55720;51.972;4.624;2023-07-31T09:26:55;4.13;;;1.80;;
35150;SDS011;55720;51.972;4.624;2023-07-31T09:29:21;2.10;;;1.20;;
35150;SDS011;55720;51.972;4.624;2023-07-31T09:31:46;2.63;;;1.50;;
35150;SDS011;55720;51.972;4.624;2023-07-31T09:34:12;2.65;;;1.38;;
35150;SDS011;55720;51.972;4.624;2023-07-31T09:36:45;3.80;;;1.48;;
35150;SDS011;55720;51.972;4.624;2023-07-31T09:39:11;3.90;;;1.50;;
35150;SDS011;55720;51.972;4.624;2023-07-31T09:41:40;1.90;;;1.40;;
35150;SDS011;55720;51.972;4.624;2023-07-31T09:44:05;1.80;;;1.70;;
35150;SDS011;55720;51.972;4.624;2023-07-31T09:46:31;2.55;;;1.80;;
35150;SDS011;55720;51.972;4.624;2023-07-31T09:51:31;4.00;;;2.17;;
35150;SDS011;55720;51.972;4.624;2023-07-31T09:53:56;2.58;;;1.80;;
35150;SDS011;55720;51.972;4.624;2023-07-31T09:56:21;3.90;;;1.48;;
35150;SDS011;55720;51.972;4.624;2023-07-31T09:58:48;2.53;;;1.52;;
35150;SDS011;55720;51.972;4.624;2023-07-31T10:01:13;3.63;;;1.70;;
35150;SDS011;55720;51.972;4.624;2023-07-31T10:03:38;2.78;;;1.50;;
35150;SDS011;55720;51.972;4.624;2023-07-31T10:06:04;2.92;;;1.90;;
35150;SDS011;55720;51.972;4.624;2023-07-31T10:08:30;2.05;;;1.73;;
35150;SDS011;55720;51.972;4.624;2023-07-31T10:10:58;2.45;;;1.42;;
35150;SDS011;55720;51.972;4.624;2023-07-31T10:13:23;3.28;;;1.67;;
35150;SDS011;55720;51.972;4.624;2023-07-31T10:15:49;2.75;;;1.40;;
35150;SDS011;55720;51.972;4.624;2023-07-31T10:18:15;1.30;;;1.20;;
35150;SDS011;55720;51.972;4.624;2023-07-31T10:20:41;1.67;;;1.30;;
35150;SDS011;55720;51.972;4.624;2023-07-31T10:23:06;1.60;;;1.50;;
35150;SDS011;55720;51.972;4.624;2023-07-31T10:25:32;2.50;;;1.92;;
35150;SDS011;55720;51.972;4.624;2023-07-31T10:27:57;3.80;;;2.05;;
35150;SDS011;55720;51.972;4.624;2023-07-31T10:30:27;2.80;;;2.50;;
35150;SDS011;55720;51.972;4.624;2023-07-31T10:32:52;4.60;;;2.28;;
35150;SDS011;55720;51.972;4.624;2023-07-31T10:35:18;4.75;;;2.80;;
35150;SDS011;55720;51.972;4.624;2023-07-31T10:37:43;5.05;;;2.70;;
35150;SDS011;55720;51.972;4.624;2023-07-31T10:40:25;4.32;;;2.50;;
35150;SDS011;55720;51.972;4.624;2023-07-31T10:42:51;2.80;;;2.15;;
35150;SDS011;55720;51.972;4.624;2023-07-31T10:48:05;3.20;;;2.20;;
35150;SDS011;55720;51.972;4.624;2023-07-31T10:50:31;5.82;;;2.28;;
35150;SDS011;55720;51.972;4.624;2023-07-31T10:53:00;6.57;;;2.45;;
35150;SDS011;55720;51.972;4.624;2023-07-31T10:55:30;7.63;;;3.08;;
35150;SDS011;55720;51.972;4.624;2023-07-31T10:57:56;10.45;;;2.72;;
35150;SDS011;55720;51.972;4.624;2023-07-31T11:00:25;6.32;;;2.40;;
35150;SDS011;55720;51.972;4.624;2023-07-31T11:05:40;6.25;;;2.80;;
35150;SDS011;55720;51.972;4.624;2023-07-31T11:08:19;5.57;;;3.10;;
35150;SDS011;55720;51.972;4.624;2023-07-31T11:10:46;6.43;;;3.92;;
35150;SDS011;55720;51.972;4.624;2023-07-31T11:13:11;8.02;;;3.83;;
35150;SDS011;55720;51.972;4.624;2023-07-31T11:15:37;7.32;;;4.30;;
35150;SDS011;55720;51.972;4.624;2023-07-31T11:18:02;8.35;;;4.28;;
35150;SDS011;55720;51.972;4.624;2023-07-31T11:20:33;7.43;;;5.05;;
35150;SDS011;55720;51.972;4.624;2023-07-31T11:23:02;10.93;;;4.70;;
35150;SDS011;55720;51.972;4.624;2023-07-31T11:25:28;8.13;;;5.70;;
35150;SDS011;55720;51.972;4.624;2023-07-31T11:27:54;8.02;;;5.18;;
35150;SDS011;55720;51.972;4.624;2023-07-31T11:30:21;7.28;;;5.00;;
35150;SDS011;55720;51.972;4.624;2023-07-31T11:32:46;9.97;;;5.20;;
35150;SDS011;55720;51.972;4.624;2023-07-31T11:35:14;6.45;;;5.30;;
35150;SDS011;55720;51.972;4.624;2023-07-31T11:37:41;8.35;;;5.43;;
35150;SDS011;55720;51.972;4.624;2023-07-31T11:40:06;7.10;;;5.28;;
35150;SDS011;55720;51.972;4.624;2023-07-31T11:42:32;6.53;;;5.60;;
35150;SDS011;55720;51.972;4.624;2023-07-31T11:44:57;12.52;;;5.07;;
35150;SDS011;55720;51.972;4.624;2023-07-31T11:47:22;10.90;;;5.30;;
35150;SDS011;55720;51.972;4.624;2023-07-31T11:49:47;8.70;;;5.37;;
35150;SDS011;55720;51.972;4.624;2023-07-31T11:52:14;6.00;;;4.97;;
35150;SDS011;55720;51.972;4.624;2023-07-31T11:54:40;6.07;;;4.90;;
35150;SDS011;55720;51.972;4.624;2023-07-31T11:57:05;5.35;;;4.95;;
35150;SDS011;55720;51.972;4.624;2023-07-31T11:59:31;7.50;;;5.40;;
35150;SDS011;55720;51.972;4.624;2023-07-31T12:01:56;9.77;;;4.78;;
35150;SDS011;55720;51.972;4.624;2023-07-31T12:04:22;11.05;;;4.68;;
35150;SDS011;55720;51.972;4.624;2023-07-31T12:06:48;5.40;;;4.47;;
35150;SDS011;55720;51.972;4.624;2023-07-31T12:09:15;6.93;;;4.72;;
35150;SDS011;55720;51.972;4.624;2023-07-31T12:11:44;6.22;;;3.65;;
35150;SDS011;55720;51.972;4.624;2023-07-31T12:14:25;3.80;;;3.40;;
35150;SDS011;55720;51.972;4.624;2023-07-31T12:16:58;4.38;;;2.90;;
35150;SDS011;55720;51.972;4.624;2023-07-31T12:19:25;5.00;;;2.70;;
35150;SDS011;55720;51.972;4.624;2023-07-31T12:21:53;3.50;;;2.53;;
35150;SDS011;55720;51.972;4.624;2023-07-31T12:24:18;3.65;;;2.53;;
35150;SDS011;55720;51.972;4.624;2023-07-31T12:26:45;7.50;;;2.28;;
35150;SDS011;55720;51.972;4.624;2023-07-31T12:29:11;3.50;;;2.20;;
35150;SDS011;55720;51.972;4.624;2023-07-31T12:31:36;3.40;;;2.37;;
35150;SDS011;55720;51.972;4.624;2023-07-31T12:34:01;4.57;;;2.50;;
35150;SDS011;55720;51.972;4.624;2023-07-31T12:36:27;4.75;;;2.13;;
35150;SDS011;55720;51.972;4.624;2023-07-31T12:38:54;8.15;;;3.35;;
35150;SDS011;55720;51.972;4.624;2023-07-31T12:41:21;6.05;;;2.60;;
35150;SDS011;55720;51.972;4.624;2023-07-31T12:43:47;4.60;;;2.73;;
35150;SDS011;55720;51.972;4.624;2023-07-31T12:46:12;6.20;;;2.70;;
35150;SDS011;55720;51.972;4.624;2023-07-31T12:48:38;4.95;;;2.90;;
35150;SDS011;55720;51.972;4.624;2023-07-31T12:51:03;3.17;;;2.88;;
35150;SDS011;55720;51.972;4.624;2023-07-31T12:53:29;5.85;;;2.35;;
35150;SDS011;55720;51.972;4.624;2023-07-31T12:55:57;2.90;;;2.38;;
35150;SDS011;55720;51.972;4.624;2023-07-31T12:58:23;5.70;;;2.30;;
35150;SDS011;55720;51.972;4.624;2023-07-31T13:00:48;6.65;;;1.75;;
35150;SDS011;55720;51.972;4.624;2023-07-31T13:03:13;1.75;;;1.33;;
35150;SDS011;55720;51.972;4.624;2023-07-31T13:05:38;1.60;;;1.30;;
35150;SDS011;55720;51.972;4.624;2023-07-31T13:08:04;4.15;;;1.20;;
35150;SDS011;55720;51.972;4.624;2023-07-31T13:10:29;2.77;;;1.20;;
35150;SDS011;55720;51.972;4.624;2023-07-31T13:12:55;2.17;;;1.20;;
35150;SDS011;55720;51.972;4.624;2023-07-31T13:15:20;2.75;;;0.90;;
35150;SDS011;55720;51.972;4.624;2023-07-31T13:17:45;2.60;;;1.10;;
35150;SDS011;55720;51.972;4.624;2023-07-31T13:20:11;1.02;;;0.93;;
35150;SDS011;55720;51.972;4.624;2023-07-31T13:22:36;2.60;;;1.10;;
35150;SDS011;55720;51.972;4.624;2023-07-31T13:25:01;2.00;;;0.80;;
35150;SDS011;55720;51.972;4.624;2023-07-31T13:27:26;0.83;;;0.83;;
35150;SDS011;55720;51.972;4.624;2023-07-31T13:29:52;1.30;;;1.00;;
35150;SDS011;55720;51.972;4.624;2023-07-31T13:32:17;1.27;;;1.10;;
35150;SDS011;55720;51.972;4.624;2023-07-31T13:34:43;3.22;;;1.25;;
35150;SDS011;55720;51.972;4.624;2023-07-31T13:37:09;1.20;;;1.10;;
35150;SDS011;55720;51.972;4.624;2023-07-31T13:39:34;1.60;;;1.50;;
35150;SDS011;55720;51.972;4.624;2023-07-31T13:41:59;2.75;;;1.25;;
35150;SDS011;55720;51.972;4.624;2023-07-31T13:44:25;1.20;;;1.20;;
35150;SDS011;55720;51.972;4.624;2023-07-31T13:46:51;2.38;;;1.17;;
35150;SDS011;55720;51.972;4.624;2023-07-31T13:49:16;0.85;;;0.85;;
35150;SDS011;55720;51.972;4.624;2023-07-31T13:51:41;1.20;;;1.10;;
35150;SDS011;55720;51.972;4.624;2023-07-31T13:54:06;1.20;;;1.10;;
35150;SDS011;55720;51.972;4.624;2023-07-31T13:56:32;0.90;;;0.90;;
35150;SDS011;55720;51.972;4.624;2023-07-31T13:58:57;1.70;;;1.15;;
35150;SDS011;55720;51.972;4.624;2023-07-31T14:01:22;1.97;;;0.97;;
35150;SDS011;55720;51.972;4.624;2023-07-31T14:03:48;2.23;;;1.10;;
35150;SDS011;55720;51.972;4.624;2023-07-31T14:06:13;1.07;;;0.90;;
35150;SDS011;55720;51.972;4.624;2023-07-31T14:08:38;1.25;;;1.10;;
35150;SDS011;55720;51.972;4.624;2023-07-31T14:11:03;1.03;;;1.00;;
35150;SDS011;55720;51.972;4.624;2023-07-31T14:13:28;1.07;;;1.07;;
35150;SDS011;55720;51.972;4.624;2023-07-31T14:15:54;1.57;;;1.10;;
35150;SDS011;55720;51.972;4.624;2023-07-31T14:18:19;0.90;;;0.90;;
35150;SDS011;55720;51.972;4.624;2023-07-31T14:20:44;2.40;;;0.90;;
35150;SDS011;55720;51.972;4.624;2023-07-31T14:23:10;0.77;;;0.77;;
35150;SDS011;55720;51.972;4.624;2023-07-31T14:25:35;1.43;;;1.33;;
35150;SDS011;55720;51.972;4.624;2023-07-31T14:28:00;1.87;;;1.77;;
35150;SDS011;55720;51.972;4.624;2023-07-31T14:30:25;2.15;;;2.05;;
35150;SDS011;55720;51.972;4.624;2023-07-31T14:32:51;2.40;;;2.22;;
35150;SDS011;55720;51.972;4.624;2023-07-31T14:35:16;3.20;;;3.00;;
35150;SDS011;55720;51.972;4.624;2023-07-31T14:37:42;3.30;;;3.10;;
35150;SDS011;55720;51.972;4.624;2023-07-31T14:40:08;3.47;;;3.28;;
35150;SDS011;55720;51.972;4.624;2023-07-31T14:42:34;3.17;;;2.97;;
35150;SDS011;55720;51.972;4.624;2023-07-31T14:44:59;2.20;;;2.00;;
35150;SDS011;55720;51.972;4.624;2023-07-31T14:47:25;1.97;;;1.77;;
35150;SDS011;55720;51.972;4.624;2023-07-31T14:49:50;1.67;;;1.57;;